Time;durP1;ratioP1;P1;durP2;ratioP2;P2;SDS_P1;SDS_P2;PMS_P1;PMS_P2;Temp;Humidity;BMP_temperature;BMP_pressure;BME280_temperature;BME280_humidity;BME280_pressure;Samples;Min_cycle;Max_cycle;Signal;HPM_P1;HPM_P2
2022/05/18 00:02:02;;;;;;;9.85;2.20;;;15.10;94.70;;;;;;5011250;28;20080;-55
2022/05/18 00:04:28;;;;;;;8.40;1.77;;;15.00;94.70;;;;;;5011661;28;20030;-55
2022/05/18 00:06:54;;;;;;;8.80;2.10;;;15.00;94.90;;;;;;5011063;28;20026;-55
2022/05/18 00:09:20;;;;;;;8.43;2.20;;;14.90;94.90;;;;;;5012836;28;20037;-56
2022/05/18 00:11:45;;;;;;;11.63;1.95;;;14.90;94.90;;;;;;5005680;28;20042;-56
2022/05/18 00:14:12;;;;;;;9.50;3.05;;;14.90;95.00;;;;;;5012704;28;20030;-55
2022/05/18 00:16:38;;;;;;;7.22;1.98;;;14.80;95.00;;;;;;5010995;28;20454;-54
2022/05/18 00:19:04;;;;;;;8.73;2.40;;;14.80;95.40;;;;;;5010366;28;20535;-55
2022/05/18 00:21:31;;;;;;;7.90;1.70;;;14.70;95.50;;;;;;5012504;28;20084;-55
2022/05/18 00:23:58;;;;;;;5.93;1.67;;;14.60;95.40;;;;;;5010768;28;20477;-55
2022/05/18 00:26:25;;;;;;;4.28;1.48;;;14.70;94.60;;;;;;5012137;28;20037;-55
2022/05/18 00:28:51;;;;;;;1.98;1.38;;;14.70;94.30;;;;;;5006882;28;20026;-56
2022/05/18 00:31:19;;;;;;;4.75;1.00;;;14.60;94.40;;;;;;5004944;28;20045;-55
2022/05/18 00:33:46;;;;;;;4.63;1.25;;;14.60;94.00;;;;;;5010483;28;20034;-56
2022/05/18 00:36:11;;;;;;;9.18;1.50;;;14.60;93.80;;;;;;5012153;28;20040;-56
2022/05/18 00:38:37;;;;;;;6.03;1.08;;;14.50;93.90;;;;;;5011562;28;20030;-54
2022/05/18 00:41:03;;;;;;;7.78;1.00;;;14.40;94.00;;;;;;5009646;28;20041;-54
2022/05/18 00:43:28;;;;;;;4.10;1.10;;;14.30;94.10;;;;;;5010389;28;20048;-55
2022/05/18 00:45:54;;;;;;;4.03;0.95;;;14.40;93.60;;;;;;5003658;28;20030;-55
2022/05/18 00:48:20;;;;;;;3.35;0.80;;;14.40;93.40;;;;;;5026584;28;20037;-54
2022/05/18 00:50:47;;;;;;;6.10;1.08;;;14.40;93.30;;;;;;5009934;28;20087;-55
2022/05/18 00:53:26;;;;;;;4.20;0.85;;;14.40;93.60;;;;;;5012040;28;20117;-55
2022/05/18 00:55:57;;;;;;;5.25;0.88;;;14.30;93.10;;;;;;5008077;28;20359;-55
2022/05/18 00:58:55;;;;;;;4.13;1.00;;;14.20;93.40;;;;;;5011253;28;20026;-55
2022/05/18 01:01:22;;;;;;;3.90;1.00;;;14.10;93.50;;;;;;5005296;28;20091;-55
2022/05/18 01:03:51;;;;;;;6.38;0.77;;;14.10;93.60;;;;;;5008785;28;20030;-54
2022/05/18 01:06:35;;;;;;;2.72;0.70;;;14.10;92.70;;;;;;5011550;28;20057;-55
2022/05/18 01:09:09;;;;;;;3.88;0.95;;;14.10;92.40;;;;;;5008811;28;20072;-55
2022/05/18 01:11:39;;;;;;;3.67;0.80;;;14.10;92.20;;;;;;5011152;28;20046;-55
2022/05/18 01:14:09;;;;;;;3.50;0.70;;;14.10;91.90;;;;;;5008826;28;20058;-56
2022/05/18 01:16:36;;;;;;;6.93;0.90;;;14.10;92.10;;;;;;5011576;28;20235;-56
2022/05/18 01:19:03;;;;;;;4.25;0.68;;;14.00;92.10;;;;;;5009497;28;20037;-57
2022/05/18 01:21:41;;;;;;;4.60;0.73;;;13.90;91.90;;;;;;5010957;28;20120;-54
2022/05/18 01:24:17;;;;;;;1.92;0.65;;;13.90;92.30;;;;;;5003184;28;20021;-57
2022/05/18 01:26:50;;;;;;;2.63;0.60;;;13.90;92.10;;;;;;5004526;28;20039;-54
2022/05/18 01:29:20;;;;;;;2.92;0.70;;;13.80;92.20;;;;;;5003911;28;20034;-55
2022/05/18 01:31:59;;;;;;;4.35;0.65;;;13.80;92.50;;;;;;5007205;28;20473;-55
2022/05/18 01:34:28;;;;;;;7.45;1.33;;;13.70;92.60;;;;;;5010635;28;20025;-55
2022/05/18 01:36:55;;;;;;;2.67;0.70;;;13.70;92.60;;;;;;5009214;28;20136;-54
2022/05/18 01:39:28;;;;;;;2.03;0.70;;;13.60;92.90;;;;;;5009351;28;20026;-55
2022/05/18 01:42:11;;;;;;;4.78;1.05;;;13.60;92.90;;;;;;5000585;28;20033;-55
2022/05/18 01:44:40;;;;;;;1.65;0.75;;;13.50;93.30;;;;;;5010705;28;20049;-55
2022/05/18 01:47:07;;;;;;;4.72;0.70;;;13.40;93.50;;;;;;5008759;28;20050;-53
2022/05/18 01:49:36;;;;;;;1.98;0.90;;;13.30;93.60;;;;;;5010536;28;20541;-55
2022/05/18 01:52:02;;;;;;;4.78;1.20;;;13.30;93.80;;;;;;5008691;28;20129;-56
2022/05/18 01:54:28;;;;;;;3.65;0.85;;;13.30;93.60;;;;;;5008665;28;20026;-54
2022/05/18 01:56:54;;;;;;;4.45;0.70;;;13.20;93.60;;;;;;5005535;28;20034;-55
2022/05/18 01:59:19;;;;;;;2.33;0.65;;;13.20;93.60;;;;;;5010257;28;20382;-55
2022/05/18 02:01:45;;;;;;;5.15;0.90;;;13.20;93.40;;;;;;5007486;28;20033;-55
2022/05/18 02:04:13;;;;;;;1.88;0.68;;;13.10;93.50;;;;;;5010176;28;20048;-53
2022/05/18 02:06:39;;;;;;;1.17;0.80;;;13.00;93.30;;;;;;5010341;28;20477;-54
2022/05/18 02:09:05;;;;;;;4.53;0.80;;;12.90;93.50;;;;;;5008561;28;20034;-56
2022/05/18 02:11:32;;;;;;;2.00;0.70;;;12.80;93.70;;;;;;5009170;28;20042;-55
2022/05/18 02:13:58;;;;;;;2.35;1.10;;;12.70;94.00;;;;;;5007643;28;20034;-56
2022/05/18 02:16:24;;;;;;;1.35;0.50;;;12.60;94.10;;;;;;5008451;28;20025;-56
2022/05/18 02:18:50;;;;;;;3.67;1.00;;;12.50;94.40;;;;;;5008526;28;20375;-56
2022/05/18 02:21:16;;;;;;;2.85;0.80;;;12.40;94.30;;;;;;5009639;28;20022;-54
2022/05/18 02:23:43;;;;;;;3.40;0.82;;;12.40;94.70;;;;;;5009958;28;20065;-54
2022/05/18 02:26:14;;;;;;;3.92;0.88;;;12.40;95.10;;;;;;5009696;28;20030;-55
2022/05/18 02:28:41;;;;;;;1.65;0.70;;;12.50;95.20;;;;;;4999001;28;20025;-57
2022/05/18 02:31:06;;;;;;;4.20;1.60;;;12.50;95.50;;;;;;5007123;28;20105;-55
2022/05/18 02:33:32;;;;;;;2.85;1.00;;;12.50;95.60;;;;;;5009706;28;20148;-55
2022/05/18 02:35:58;;;;;;;6.60;1.35;;;12.60;95.60;;;;;;5007949;28;20499;-57
2022/05/18 02:38:24;;;;;;;4.40;1.30;;;12.60;95.40;;;;;;5010031;28;20030;-56
2022/05/18 02:40:49;;;;;;;5.97;1.35;;;12.70;95.00;;;;;;5008392;28;20057;-53
2022/05/18 02:43:15;;;;;;;3.92;0.85;;;12.70;94.80;;;;;;5009367;28;20045;-56
2022/05/18 02:45:41;;;;;;;2.42;0.90;;;12.60;95.10;;;;;;5008272;28;20105;-56
2022/05/18 02:48:07;;;;;;;6.78;1.13;;;12.50;95.30;;;;;;5007830;28;20022;-55
2022/05/18 02:50:33;;;;;;;5.20;0.85;;;12.50;95.40;;;;;;4997357;28;20176;-54
2022/05/18 02:53:00;;;;;;;2.67;0.80;;;12.40;95.50;;;;;;5008103;28;20029;-55
2022/05/18 02:58:10;;;;;;;4.13;1.15;;;12.40;95.90;;;;;;5009753;28;20091;-54
2022/05/18 03:00:37;;;;;;;2.85;0.88;;;12.30;95.90;;;;;;5007071;28;20432;-55
2022/05/18 03:03:03;;;;;;;5.38;0.90;;;12.30;96.00;;;;;;5011446;28;20036;-54
2022/05/18 03:05:29;;;;;;;4.15;0.90;;;12.30;95.50;;;;;;5014132;28;20108;-55
2022/05/18 03:07:55;;;;;;;4.72;1.63;;;12.20;95.80;;;;;;5011566;28;20034;-52
2022/05/18 03:10:21;;;;;;;1.95;0.55;;;12.20;95.60;;;;;;5014063;28;20437;-54
2022/05/18 03:12:46;;;;;;;5.25;1.20;;;12.10;95.00;;;;;;5011516;28;20044;-56
2022/05/18 03:15:13;;;;;;;5.35;0.90;;;12.00;95.20;;;;;;5013879;28;20024;-53
2022/05/18 03:17:39;;;;;;;3.10;1.08;;;11.90;95.60;;;;;;5013823;28;20037;-51
2022/05/18 03:20:06;;;;;;;6.38;1.42;;;11.80;96.00;;;;;;5003476;28;20069;-54
2022/05/18 03:25:18;;;;;;;2.45;0.90;;;11.70;95.60;;;;;;5012902;28;20088;-54
2022/05/18 03:27:44;;;;;;;3.60;0.82;;;11.60;95.50;;;;;;5010326;28;20460;-55
2022/05/18 03:30:12;;;;;;;4.47;1.20;;;11.50;95.20;;;;;;5013387;28;20022;-54
2022/05/18 03:32:39;;;;;;;3.17;1.10;;;11.40;95.30;;;;;;5013360;28;20508;-54
2022/05/18 03:35:06;;;;;;;5.65;0.90;;;11.30;95.40;;;;;;5011529;28;20474;-53
2022/05/18 03:37:32;;;;;;;3.33;0.90;;;11.30;95.60;;;;;;5011994;28;20062;-54
2022/05/18 03:39:58;;;;;;;3.83;0.80;;;11.20;95.80;;;;;;5011003;28;20054;-54
2022/05/18 03:42:23;;;;;;;5.90;1.10;;;11.10;96.00;;;;;;5011609;28;20087;-57
2022/05/18 03:44:49;;;;;;;3.22;0.70;;;11.10;96.80;;;;;;5011509;28;20046;-54
2022/05/18 03:47:15;;;;;;;3.30;1.02;;;11.00;96.70;;;;;;5013360;28;20033;-54
2022/05/18 03:49:41;;;;;;;6.38;1.70;;;11.00;96.80;;;;;;5011582;28;20041;-55
2022/05/18 03:52:07;;;;;;;10.90;1.17;;;11.10;97.70;;;;;;5011629;28;20088;-55
2022/05/18 03:54:33;;;;;;;5.53;1.58;;;11.10;98.00;;;;;;5012908;28;20474;-54
2022/05/18 03:56:59;;;;;;;6.55;1.13;;;11.10;96.80;;;;;;5010215;28;20112;-55
2022/05/18 03:59:26;;;;;;;8.98;1.50;;;11.00;97.30;;;;;;5012877;28;20113;-52
2022/05/18 04:01:52;;;;;;;4.80;1.10;;;11.00;97.40;;;;;;5011309;28;20034;-56
2022/05/18 04:04:17;;;;;;;5.30;1.60;;;11.10;97.50;;;;;;5006319;28;20030;-56
2022/05/18 04:06:43;;;;;;;7.70;2.10;;;11.00;98.00;;;;;;5012130;28;20100;-54
2022/05/18 04:09:09;;;;;;;6.72;1.55;;;11.10;98.40;;;;;;5006760;28;20029;-56
2022/05/18 04:11:35;;;;;;;2.35;1.33;;;11.10;97.40;;;;;;5012616;28;20042;-56
2022/05/18 04:14:00;;;;;;;14.10;2.13;;;11.10;97.70;;;;;;5002798;28;20125;-53
2022/05/18 04:16:26;;;;;;;6.28;1.90;;;11.20;98.50;;;;;;5012759;28;20397;-55
2022/05/18 04:18:52;;;;;;;8.60;1.90;;;11.20;98.40;;;;;;5009551;28;20030;-56
2022/05/18 04:21:18;;;;;;;5.05;1.95;;;11.20;98.40;;;;;;5012230;28;20022;-55
2022/05/18 04:23:44;;;;;;;9.25;2.28;;;11.30;98.50;;;;;;5002815;28;20030;-54
2022/05/18 04:26:10;;;;;;;6.47;1.50;;;11.40;98.50;;;;;;5011364;28;20057;-55
2022/05/18 04:28:36;;;;;;;4.82;1.88;;;11.30;97.30;;;;;;5009589;28;20553;-56
2022/05/18 04:31:02;;;;;;;9.63;2.80;;;11.20;96.90;;;;;;5010623;28;20129;-55
2022/05/18 04:33:28;;;;;;;8.00;2.78;;;11.10;97.40;;;;;;5005499;28;20030;-55
2022/05/18 04:35:54;;;;;;;6.47;2.33;;;11.10;97.30;;;;;;5007321;28;20034;-56
2022/05/18 04:38:21;;;;;;;14.05;3.95;;;11.10;98.10;;;;;;5012236;28;20033;-54
2022/05/18 04:40:47;;;;;;;12.95;3.58;;;11.30;98.90;;;;;;5010303;28;20406;-54
2022/05/18 04:43:14;;;;;;;10.70;3.20;;;11.40;98.30;;;;;;5008973;28;20084;-56
2022/05/18 04:45:44;;;;;;;12.48;3.25;;;11.40;97.90;;;;;;5011882;28;20032;-54
2022/05/18 04:48:18;;;;;;;11.25;3.88;;;11.40;97.20;;;;;;5009675;28;20107;-55
2022/05/18 04:50:45;;;;;;;8.52;3.85;;;11.50;97.70;;;;;;5009448;28;20026;-54
2022/05/18 04:53:11;;;;;;;12.05;3.75;;;11.60;97.90;;;;;;5021920;28;20381;-54
2022/05/18 04:55:37;;;;;;;9.82;3.58;;;11.60;97.60;;;;;;5011903;28;20034;-55
2022/05/18 04:58:04;;;;;;;10.27;3.88;;;11.60;97.00;;;;;;5005337;28;20022;-55
2022/05/18 05:00:30;;;;;;;16.45;4.32;;;11.50;96.90;;;;;;5002497;28;20053;-55
2022/05/18 05:02:57;;;;;;;9.40;4.03;;;11.60;97.60;;;;;;5009630;28;20485;-56
2022/05/18 05:05:24;;;;;;;10.88;3.50;;;11.60;97.50;;;;;;5011542;28;20038;-54
2022/05/18 05:07:50;;;;;;;5.28;3.55;;;11.60;97.10;;;;;;5009716;28;20034;-56
2022/05/18 05:10:19;;;;;;;13.43;4.13;;;11.50;97.00;;;;;;5011506;28;20034;-54
2022/05/18 05:12:47;;;;;;;11.55;3.78;;;11.50;97.50;;;;;;5008426;28;20034;-55
2022/05/18 05:15:14;;;;;;;14.57;5.90;;;11.50;97.80;;;;;;5011550;28;20034;-55
2022/05/18 05:17:40;;;;;;;9.10;3.22;;;11.70;97.80;;;;;;5011108;28;20521;-54
2022/05/18 05:20:07;;;;;;;7.03;3.33;;;11.80;97.20;;;;;;5009743;28;20113;-55
2022/05/18 05:22:33;;;;;;;12.48;5.07;;;11.70;97.40;;;;;;5005947;28;20026;-52
2022/05/18 05:24:58;;;;;;;9.25;3.50;;;11.80;97.40;;;;;;5009060;28;20026;-55
2022/05/18 05:27:24;;;;;;;10.85;4.00;;;11.90;96.70;;;;;;5010501;28;20038;-55
2022/05/18 05:29:50;;;;;;;9.30;4.03;;;11.90;96.90;;;;;;5009452;28;20030;-55
2022/05/18 05:32:16;;;;;;;11.13;4.32;;;11.90;96.60;;;;;;5008320;28;20393;-55
2022/05/18 05:34:42;;;;;;;10.90;3.83;;;11.90;96.60;;;;;;4993758;28;20026;-52
2022/05/18 05:37:08;;;;;;;10.52;3.25;;;12.00;96.90;;;;;;5009279;28;20036;-55
2022/05/18 05:39:34;;;;;;;15.48;5.53;;;12.00;97.00;;;;;;5010609;28;20116;-54
2022/05/18 05:42:00;;;;;;;11.82;4.70;;;12.10;96.70;;;;;;5004305;28;20026;-54
2022/05/18 05:44:26;;;;;;;8.07;4.50;;;12.20;96.70;;;;;;5010661;28;20042;-53
2022/05/18 05:46:51;;;;;;;12.77;5.18;;;12.20;96.50;;;;;;5007717;28;20044;-53
2022/05/18 05:49:17;;;;;;;12.13;4.70;;;12.30;96.50;;;;;;5011054;28;20033;-54
2022/05/18 05:51:43;;;;;;;11.52;5.45;;;12.40;96.10;;;;;;5008583;28;20041;-55
2022/05/18 05:54:09;;;;;;;9.95;4.38;;;12.50;96.00;;;;;;5021077;28;20026;-56
2022/05/18 05:56:35;;;;;;;10.35;4.10;;;12.50;96.10;;;;;;5011848;28;20052;-55
2022/05/18 05:59:01;;;;;;;11.02;4.03;;;12.60;95.80;;;;;;5029194;28;20033;-56
2022/05/18 06:01:26;;;;;;;11.43;4.18;;;12.60;95.80;;;;;;5012974;28;20030;-55
2022/05/18 06:03:52;;;;;;;11.48;3.72;;;12.70;95.60;;;;;;5008462;28;20041;-55
2022/05/18 06:06:19;;;;;;;15.57;3.60;;;12.70;95.50;;;;;;5008639;28;20481;-56
2022/05/18 06:08:45;;;;;;;10.18;3.55;;;12.70;95.60;;;;;;5008416;28;20034;-56
2022/05/18 06:11:11;;;;;;;11.65;3.83;;;12.80;95.50;;;;;;5008694;28;20069;-54
2022/05/18 06:13:38;;;;;;;10.10;3.33;;;12.80;95.60;;;;;;5010005;28;20026;-55
2022/05/18 06:16:04;;;;;;;8.27;3.05;;;12.90;95.60;;;;;;5006428;28;20497;-55
2022/05/18 06:18:30;;;;;;;7.32;3.78;;;13.00;95.40;;;;;;5010318;28;20029;-54
2022/05/18 06:20:57;;;;;;;7.95;3.42;;;13.10;95.40;;;;;;5008510;28;20469;-56
2022/05/18 06:23:23;;;;;;;13.55;5.15;;;13.10;95.40;;;;;;5010119;28;20038;-52
2022/05/18 06:25:48;;;;;;;13.27;4.40;;;13.20;95.40;;;;;;5008057;28;20382;-52
2022/05/18 06:28:14;;;;;;;13.95;4.82;;;13.30;95.30;;;;;;5000121;28;20025;-55
2022/05/18 06:30:41;;;;;;;14.45;3.92;;;13.30;95.00;;;;;;5009216;28;20095;-55
2022/05/18 06:33:07;;;;;;;11.57;3.70;;;13.40;95.00;;;;;;5008597;28;20038;-54
2022/05/18 06:35:33;;;;;;;10.57;3.72;;;13.50;94.90;;;;;;5009382;28;20109;-54
2022/05/18 06:37:59;;;;;;;8.02;3.00;;;13.60;94.70;;;;;;5007188;28;20064;-55
2022/05/18 06:41:21;;;;;;;10.55;2.58;;;13.70;94.40;;;;;;5009911;28;20091;-56
2022/05/18 06:43:11;;;;;;;10.88;2.45;;;13.80;93.80;;;;;;5006759;28;20053;-54
2022/05/18 06:45:37;;;;;;;9.38;2.05;;;13.90;93.20;;;;;;4997961;28;20030;-56
2022/05/18 06:48:04;;;;;;;7.72;2.35;;;13.90;92.80;;;;;;5006730;28;20030;-56
2022/05/18 06:50:29;;;;;;;8.35;2.35;;;14.20;92.60;;;;;;5009652;28;20045;-55
2022/05/18 06:52:55;;;;;;;10.90;2.67;;;14.30;92.20;;;;;;5005471;28;20155;-54
2022/05/18 06:55:21;;;;;;;11.82;2.85;;;14.60;91.60;;;;;;5009125;28;20026;-55
2022/05/18 06:57:47;;;;;;;13.15;2.90;;;14.80;91.00;;;;;;5006079;28;20094;-54
2022/05/18 07:00:14;;;;;;;8.15;2.75;;;14.90;90.70;;;;;;5009611;28;20033;-56
2022/05/18 07:02:40;;;;;;;12.50;2.40;;;15.00;90.50;;;;;;5017788;28;20022;-58
2022/05/18 07:05:06;;;;;;;7.35;2.22;;;15.10;90.30;;;;;;5000910;28;20079;-55
2022/05/18 07:07:32;;;;;;;10.98;2.42;;;15.30;90.00;;;;;;5003338;28;20486;-55
2022/05/18 07:09:58;;;;;;;7.20;2.63;;;15.20;89.90;;;;;;5009319;28;20493;-57
2022/05/18 07:12:23;;;;;;;8.95;2.70;;;15.30;89.80;;;;;;5010509;28;20116;-56
2022/05/18 07:14:49;;;;;;;6.82;1.70;;;15.40;89.30;;;;;;5005292;28;20033;-57
2022/05/18 07:17:15;;;;;;;9.70;1.85;;;15.40;88.30;;;;;;5008515;28;20026;-55
2022/05/18 07:19:40;;;;;;;6.47;1.73;;;15.50;88.30;;;;;;5001842;28;20442;-56
2022/05/18 07:22:06;;;;;;;10.40;2.33;;;15.50;88.10;;;;;;5006376;28;20029;-55
2022/05/18 07:24:32;;;;;;;10.23;2.15;;;15.50;88.40;;;;;;5010362;28;20505;-55
2022/05/18 07:26:58;;;;;;;4.15;1.67;;;15.50;88.50;;;;;;4999347;28;20026;-53
2022/05/18 07:29:24;;;;;;;7.28;2.00;;;15.40;88.90;;;;;;5008149;28;20081;-55
2022/05/18 07:34:34;;;;;;;7.22;1.52;;;15.30;88.50;;;;;;5012073;28;20033;-56
2022/05/18 07:37:01;;;;;;;12.07;1.80;;;15.20;87.60;;;;;;5005033;28;20478;-58
2022/05/18 07:39:30;;;;;;;6.60;1.75;;;15.30;88.00;;;;;;5011617;28;20033;-54
2022/05/18 07:41:58;;;;;;;7.75;1.70;;;15.40;88.00;;;;;;5015402;28;20041;-60
2022/05/18 07:44:25;;;;;;;11.27;3.33;;;15.40;87.90;;;;;;5008679;28;20045;-56
2022/05/18 07:46:51;;;;;;;9.88;2.15;;;15.40;89.00;;;;;;5012164;28;20037;-56
2022/05/18 07:49:17;;;;;;;5.47;2.17;;;15.40;88.70;;;;;;5022665;28;20022;-55
2022/05/18 07:51:43;;;;;;;10.70;2.20;;;15.30;89.20;;;;;;5026232;28;20128;-56
2022/05/18 07:54:09;;;;;;;7.50;1.98;;;15.40;89.00;;;;;;5009952;28;20049;-54
2022/05/18 07:56:35;;;;;;;5.20;1.92;;;15.40;88.10;;;;;;5027861;28;20119;-57
2022/05/18 07:59:03;;;;;;;5.78;1.50;;;15.30;87.50;;;;;;5011723;28;20030;-55
2022/05/18 08:01:28;;;;;;;6.25;1.90;;;15.40;86.90;;;;;;5009802;28;20030;-55
2022/05/18 08:03:54;;;;;;;9.75;2.00;;;15.60;87.60;;;;;;5004192;28;20137;-57
2022/05/18 08:06:21;;;;;;;10.07;2.10;;;15.70;85.80;;;;;;5010062;28;20049;-56
2022/05/18 08:08:47;;;;;;;10.48;2.10;;;16.00;85.20;;;;;;5015257;28;20034;-56
2022/05/18 08:16:42;;;;;;;5.07;1.40;;;16.10;82.60;;;;;;5006394;28;20080;-57
2022/05/18 08:19:12;;;;;;;5.95;1.88;;;16.10;83.50;;;;;;5010592;28;20030;-53
2022/05/18 08:21:38;;;;;;;12.55;1.88;;;16.00;84.00;;;;;;5024423;28;20393;-56
2022/05/18 08:24:05;;;;;;;6.15;1.40;;;16.00;84.30;;;;;;5014552;28;20470;-56
2022/05/18 08:26:31;;;;;;;5.78;1.80;;;15.80;84.10;;;;;;5018855;28;20036;-58
2022/05/18 08:28:58;;;;;;;8.15;1.85;;;15.90;85.20;;;;;;5006650;28;20118;-54
2022/05/18 08:31:24;;;;;;;7.00;1.73;;;15.90;84.50;;;;;;5008125;28;20568;-56
2022/05/18 08:33:50;;;;;;;9.38;2.42;;;16.10;83.70;;;;;;5014620;28;20125;-55
2022/05/18 08:36:18;;;;;;;6.15;1.63;;;16.30;83.50;;;;;;5013012;28;20125;-56
2022/05/18 08:38:45;;;;;;;6.75;1.90;;;16.50;82.60;;;;;;5006891;28;20489;-55
2022/05/18 08:41:15;;;;;;;6.90;1.83;;;16.50;81.90;;;;;;5006758;28;20024;-56
2022/05/18 08:43:45;;;;;;;11.52;2.30;;;16.50;81.50;;;;;;5002794;28;20502;-57
2022/05/18 08:46:25;;;;;;;7.35;1.30;;;16.70;82.10;;;;;;5003176;28;20030;-56
2022/05/18 08:49:17;;;;;;;5.90;2.10;;;16.40;81.30;;;;;;5005493;28;20476;-60
2022/05/18 08:51:50;;;;;;;;;;;16.30;81.60;;;;;;4999469;28;20058;-58
2022/05/18 08:54:35;;;;;;;8.10;1.83;;;16.40;82.00;;;;;;5004505;28;19909;-57
2022/05/18 08:57:06;;;;;;;8.52;1.60;;;16.20;82.70;;;;;;5004964;28;20042;-57
2022/05/18 08:59:38;;;;;;;10.52;2.15;;;16.30;82.00;;;;;;5007159;28;20108;-57
2022/05/18 09:02:19;;;;;;;11.10;1.65;;;16.40;81.70;;;;;;5005968;28;20657;-57
2022/05/18 09:04:57;;;;;;;10.35;1.60;;;16.30;81.30;;;;;;5007304;28;21660;-57
2022/05/18 09:07:27;;;;;;;6.03;1.90;;;16.20;81.40;;;;;;5005874;28;20034;-57
2022/05/18 09:10:14;;;;;;;9.82;1.80;;;16.20;82.30;;;;;;5005585;28;20553;-57
2022/05/18 09:12:47;;;;;;;6.20;1.40;;;16.20;82.40;;;;;;5006755;28;20181;-58
2022/05/18 09:15:19;;;;;;;11.45;2.03;;;16.50;81.50;;;;;;5007077;28;20052;-57
2022/05/18 09:18:23;;;;;;;10.95;2.30;;;16.60;80.90;;;;;;5004091;28;20120;-57
2022/05/18 09:21:13;;;;;;;11.45;2.10;;;16.70;80.70;;;;;;4981926;28;20038;-56
2022/05/18 09:24:05;;;;;;;6.13;1.33;;;16.80;81.00;;;;;;4987118;28;20169;-59
2022/05/18 09:26:45;;;;;;;;;;;16.50;79.90;;;;;;4974503;28;21430;-57
2022/05/18 09:29:31;;;;;;;7.45;1.45;;;16.60;80.00;;;;;;4981089;28;19921;-55
2022/05/18 09:32:05;;;;;;;12.27;2.22;;;16.80;79.00;;;;;;4985477;28;20038;-58
2022/05/18 09:35:12;;;;;;;6.13;1.40;;;17.20;76.20;;;;;;4986108;28;20042;-57
2022/05/18 09:37:45;;;;;;;8.73;1.63;;;17.60;74.50;;;;;;4984916;28;20560;-57
2022/05/18 09:40:17;;;;;;;6.63;1.63;;;17.70;76.30;;;;;;4985182;28;20125;-58
2022/05/18 09:42:51;;;;;;;8.02;1.65;;;17.80;76.60;;;;;;4981859;28;20118;-57
2022/05/18 09:45:24;;;;;;;7.70;1.50;;;17.80;75.50;;;;;;4980426;28;20076;-55
2022/05/18 09:48:13;;;;;;;10.00;1.60;;;18.00;75.20;;;;;;4981441;28;20034;-55
2022/05/18 09:50:41;;;;;;;10.85;1.80;;;17.90;73.00;;;;;;4975143;28;20066;-55
2022/05/18 09:53:07;;;;;;;8.68;1.80;;;18.00;72.70;;;;;;4981739;28;20119;-55
2022/05/18 09:55:34;;;;;;;8.52;2.40;;;18.00;73.90;;;;;;4985577;28;20089;-57
2022/05/18 09:58:33;;;;;;;8.80;1.55;;;18.10;73.70;;;;;;5001307;28;20042;-57
2022/05/18 10:09:45;;;;;;;9.68;2.90;;;18.20;70.60;;;;;;5006363;28;20091;-57
2022/05/18 10:12:35;;;;;;;4.88;1.20;;;18.20;70.40;;;;;;5003417;28;20042;-57
2022/05/18 10:15:05;;;;;;;7.47;1.40;;;18.30;70.30;;;;;;5005673;28;20474;-58
2022/05/18 10:17:34;;;;;;;8.20;1.73;;;18.40;69.20;;;;;;5006236;28;20030;-57
2022/05/18 10:20:23;;;;;;;10.65;1.48;;;18.70;68.60;;;;;;5005777;28;20045;-56
2022/05/18 10:22:50;;;;;;;6.32;1.40;;;18.80;66.20;;;;;;5001877;28;20134;-55
2022/05/18 10:25:47;;;;;;;12.40;2.10;;;18.80;67.10;;;;;;5017954;28;20029;-57
2022/05/18 10:28:25;;;;;;;5.72;1.25;;;19.00;67.50;;;;;;5010976;28;20569;-57
2022/05/18 10:30:59;;;;;;;8.13;1.45;;;18.90;65.20;;;;;;5020360;28;20040;-56
2022/05/18 10:33:33;;;;;;;7.45;1.73;;;18.80;65.60;;;;;;5010603;28;20045;-56
2022/05/18 10:36:24;;;;;;;7.88;1.83;;;18.90;65.00;;;;;;5006934;28;20013;-56
2022/05/18 10:38:58;;;;;;;7.10;1.50;;;19.20;65.20;;;;;;5006099;28;20046;-57
2022/05/18 10:41:36;;;;;;;9.30;1.40;;;19.30;63.00;;;;;;5022482;28;20497;-56
2022/05/18 10:44:08;;;;;;;7.63;1.75;;;19.20;62.70;;;;;;5015686;28;20049;-56
2022/05/18 10:46:52;;;;;;;7.35;1.52;;;19.10;65.30;;;;;;5020529;28;20037;-58
2022/05/18 10:49:33;;;;;;;7.78;2.13;;;19.30;66.00;;;;;;5006202;28;20026;-57
2022/05/18 10:52:18;;;;;;;8.20;1.50;;;19.50;63.50;;;;;;5022188;28;20187;-57
2022/05/18 10:55:01;;;;;;;8.48;1.75;;;19.50;63.10;;;;;;5010977;28;20037;-57
2022/05/18 10:57:32;;;;;;;7.32;1.50;;;19.40;62.50;;;;;;5003272;28;20128;-57
2022/05/18 11:00:00;;;;;;;6.90;1.27;;;19.80;61.70;;;;;;4996161;28;20034;-58
2022/05/18 11:02:47;;;;;;;7.93;1.20;;;20.20;58.80;;;;;;5019220;28;20029;-57
2022/05/18 11:05:15;;;;;;;6.43;0.98;;;20.70;57.90;;;;;;5009438;28;20037;-57
2022/05/18 11:07:43;;;;;;;9.57;1.83;;;21.10;57.20;;;;;;5008859;28;20535;-58
2022/05/18 11:10:10;;;;;;;6.53;1.30;;;21.40;56.40;;;;;;5014466;28;20032;-58
2022/05/18 11:12:46;;;;;;;6.50;1.38;;;21.60;56.50;;;;;;5013324;28;20046;-59
2022/05/18 11:15:22;;;;;;;11.50;1.40;;;21.80;55.30;;;;;;5004201;28;20062;-58
2022/05/18 11:18:13;;;;;;;5.38;1.10;;;22.00;53.90;;;;;;4997923;28;20077;-57
2022/05/18 11:20:53;;;;;;;9.38;2.30;;;22.00;52.90;;;;;;5008426;28;20049;-57
2022/05/18 11:23:46;;;;;;;8.45;1.45;;;21.90;53.00;;;;;;5011340;28;20025;-57
2022/05/18 11:26:32;;;;;;;9.10;1.25;;;22.00;53.40;;;;;;5004931;28;20420;-56
2022/05/18 11:29:22;;;;;;;3.58;1.10;;;22.10;53.80;;;;;;5010128;28;20452;-56
2022/05/18 11:32:06;;;;;;;8.35;1.73;;;22.50;53.20;;;;;;5000180;28;20069;-58
2022/05/18 11:34:41;;;;;;;10.70;2.45;;;22.70;53.10;;;;;;5013346;28;20477;-57
2022/05/18 11:37:24;;;;;;;7.50;1.23;;;22.60;52.20;;;;;;5005739;28;20060;-57
2022/05/18 11:40:10;;;;;;;7.82;1.75;;;22.40;50.80;;;;;;5019002;28;20034;-58
2022/05/18 11:42:51;;;;;;;7.15;1.38;;;22.60;52.50;;;;;;5011784;28;20396;-57
2022/05/18 11:45:35;;;;;;;7.75;1.15;;;22.50;51.60;;;;;;5012665;28;20038;-58
2022/05/18 11:48:18;;;;;;;9.05;1.30;;;22.20;52.50;;;;;;5014930;28;20029;-57
2022/05/18 11:50:47;;;;;;;9.38;1.63;;;22.60;51.10;;;;;;5018789;28;20503;-58
2022/05/18 11:53:39;;;;;;;6.22;1.63;;;23.00;50.10;;;;;;5012819;28;20061;-56
2022/05/18 11:56:13;;;;;;;;;;;23.20;51.00;;;;;;5019084;28;20108;-56
2022/05/18 12:01:55;;;;;;;6.88;1.60;;;23.00;51.00;;;;;;5015244;28;20030;-57
2022/05/18 12:04:24;;;;;;;4.63;1.20;;;22.70;51.50;;;;;;5011483;28;20041;-56
2022/05/18 12:07:04;;;;;;;10.77;1.80;;;22.70;51.00;;;;;;5010615;28;20065;-56
2022/05/18 12:09:45;;;;;;;4.65;0.90;;;22.60;51.90;;;;;;5010870;28;20029;-57
2022/05/18 12:12:40;;;;;;;4.50;1.20;;;22.80;46.50;;;;;;5010846;28;20117;-56
2022/05/18 12:15:30;;;;;;;4.65;1.23;;;23.20;43.70;;;;;;5012154;28;20478;-57
2022/05/18 12:18:18;;;;;;;8.95;2.33;;;23.30;46.80;;;;;;5008716;28;20046;-57
2022/05/18 12:21:18;;;;;;;6.28;0.98;;;23.20;44.80;;;;;;5006542;28;20042;-57
2022/05/18 12:23:50;;;;;;;4.28;1.15;;;23.10;45.80;;;;;;5014929;28;20112;-57
2022/05/18 12:26:20;;;;;;;6.38;1.20;;;23.40;46.30;;;;;;5014039;28;20061;-56
2022/05/18 12:28:46;;;;;;;7.57;1.05;;;23.70;45.20;;;;;;5010308;28;20026;-57
2022/05/18 12:31:12;;;;;;;6.82;1.20;;;23.50;44.50;;;;;;5012483;28;20030;-58
2022/05/18 12:33:58;;;;;;;5.32;1.02;;;23.70;44.40;;;;;;5011924;28;20045;-58
2022/05/18 12:36:34;;;;;;;5.43;1.10;;;23.50;43.80;;;;;;5013338;28;20034;-57
2022/05/18 12:39:14;;;;;;;4.85;1.00;;;24.00;44.20;;;;;;5007421;28;20022;-56
2022/05/18 12:41:55;;;;;;;2.75;0.88;;;24.10;42.40;;;;;;5014732;28;20037;-58
2022/05/18 12:44:41;;;;;;;6.03;1.40;;;24.50;41.70;;;;;;5011321;28;20042;-57
2022/05/18 12:47:29;;;;;;;5.93;1.20;;;24.40;41.50;;;;;;5009209;28;20026;-57
2022/05/18 12:50:02;;;;;;;4.22;0.88;;;25.10;39.90;;;;;;5009229;28;20080;-56
2022/05/18 12:52:37;;;;;;;5.43;1.10;;;25.50;37.00;;;;;;5009745;28;20041;-57
2022/05/18 12:55:39;;;;;;;2.97;1.00;;;25.30;36.40;;;;;;5000737;28;20029;-56
2022/05/18 12:58:23;;;;;;;3.75;0.93;;;25.40;37.80;;;;;;4996442;28;20109;-57
2022/05/18 13:01:04;;;;;;;3.95;0.80;;;25.90;36.30;;;;;;5008042;28;20037;-57
2022/05/18 13:04:05;;;;;;;2.92;0.57;;;25.80;36.40;;;;;;5011046;28;20018;-58
2022/05/18 13:07:00;;;;;;;5.30;1.00;;;24.80;38.40;;;;;;5020123;28;20026;-57
2022/05/18 13:09:36;;;;;;;5.32;1.10;;;25.00;38.10;;;;;;5022088;28;20033;-57
2022/05/18 13:12:17;;;;;;;3.28;1.00;;;25.50;38.40;;;;;;5011096;28;20380;-57
2022/05/18 13:15:25;;;;;;;6.25;1.55;;;25.50;39.20;;;;;;5018900;28;20078;-57
2022/05/18 13:17:54;;;;;;;7.10;1.95;;;24.90;40.40;;;;;;5007802;28;20041;-57
2022/05/18 13:20:26;;;;;;;8.65;1.50;;;25.30;39.70;;;;;;5008494;28;20030;-56
2022/05/18 13:23:31;;;;;;;;;;;25.40;38.20;;;;;;5001349;28;20048;-56
2022/05/18 13:26:18;;;;;;;5.38;1.63;;;24.80;39.50;;;;;;5005413;28;19952;-56
2022/05/18 13:28:46;;;;;;;2.90;0.82;;;24.40;39.90;;;;;;4991844;28;20395;-57
2022/05/18 13:31:14;;;;;;;7.43;1.27;;;24.00;41.50;;;;;;5006287;28;20555;-54
2022/05/18 13:34:16;;;;;;;6.82;1.58;;;23.80;41.60;;;;;;5014377;28;20033;-57